Steger, Illinois
Current Conditions -  °F | °C
As of 4:15 PM on Wednesday 28 Jan 2015 (Local Time) from KIGQ Reporting Station
Clear Clear  
Wind Chill: 23°   Ceiling: Unl
Heat Index: 32°   Visibility: 10mi
Dew Point: 23°   Wind: 13mph
Humidity: 69%   Direction: 150°SSE
Pressure: 30.1"   Gusts: 18mph
Location:  41.47°N, 87.64°W
Report Text: KIGQ 282215Z AUTO 15011G16KT 10SM CLR 00/M05 A3010 RMK AO2 T00011050
Loading
Personal Weather Stations






























Interactive Weather Map New forecast layout! Learn more

10-Day Weather Forecast

Advertisements
Track Severe Weather on mobile